Juan de Fuca Strait - central strait: Past 24 Hour Conditions

 

Halibut Bank - 46146

12:00 PM PDT 20 July 2018Buoy position: 49.34N 123.72W
Disclaimer

This table is a summary of hourly weather conditions for the past 24 hours.
Please note that these observations might not always be representative of weather conditions over their associated marine area.

Date / Time
(PDT)
Wind(knots) Wave height(m) Wave period(s) Pressure(kPa) Air tempC) Water tempC)
20 July 2018
12:00 W 12 gust 12 0.6 4.0 102.1 16 18
11:00 WNW 10 gust 12 0.6 4.0 102.1 16 18
10:00 WNW 14 gust 16 0.7 4.0 102.1 16 18
9:00 W 16 gust 19 0.6 4.0 102.1 16 18
8:00 WNW 14 gust 16 0.7 4.0 102.1 15 18
7:00 NW 14 gust 18 0.9 4.0 102.1 15 18
6:00 NW 18 gust 21 1.0 4.0 102.0 16 18
5:00 W 19 gust 23 0.9 4.0 102.0 16 18
4:00 WNW 19 gust 23 0.8 4.0 101.9 16 18
3:00 NW 19 gust 23 0.5 3.0 101.9 17 18
2:00 WNW 16 gust 19 0.2 2.0 101.9 17 18
1:00 WNW 4 gust 4 0.1 4.0 102.0 18 18
0:00 SE 2 gust 2 0.2 3.0 102.0 17 19
19 July 2018
23:00 SSE 6 gust 8 0.2 3.0 102.0 18 18
22:00 SSE 8 gust 10 0.3 3.0 102.0 18 19
21:00 SE 10 gust 12 0.3 3.0 102.0 18 18
20:00 SE 10 gust 10 0.4 3.0 101.9 18 18
19:00 SE 10 gust 12 0.4 3.0 102.0 18 18
18:00 SE 12 gust 12 0.3 2.0 102.0 18 18
17:00 SE 12 gust 12 0.2 2.0 102.0 18 18
16:00 SE 10 gust 12 0.2 2.0 102.0 17 18
15:00 SE 10 gust 10 0.2 3.0 102.1 17 18
14:00 SE 8 gust 10 0.3 3.0 102.1 17 19
13:00 SE 6 gust 6 0.3 3.0 102.1 17 18
12:00 SE 6 gust 6 0.3 3.0 102.1 16 18

Zoom-in to make a selection

Map of Pacific - Georgia Basin marine weather areas Sentry Shoal - 46131 Halibut Bank - 46146 La Perouse Bank - 46206 Discovery Island Esquimalt Harbour Kelp Reefs Malahat Race Rocks Lightstation Saturna Island Sheringham Point University of Victoria Victoria Gonzales Victoria Int'l Airport Ballenas Islands Campbell River Airport Comox Airport Entrance Island Fanny Island Nanaimo Airport Sisters Islets Estevan Point Port Alberni Tofino Airport Grief Point Howe Sound - Pam Rocks Powell River Airport Sechelt Squamish Airport Point Atkinson Sand Heads Lightstation Tsawwassen Ferry Terminal Vancouver Int'l Airport Vancouver Harbour West Vancouver
Legend:
buoy Buoy
land station Land Station

Pacific - Georgia Basin Area

Another Region

What we are doing

Features

Follow us on Twitter!

Get timely local #weather alerts directly to your Twitter feed

Lightning Safety

When thunder roars, GO INDOORS!

UV Index and sun protection

Be weather wise!

Date modified: